sensor_id;sensor_type;location;lat;lon;timestamp;P1;durP1;ratioP1;P2;durP2;ratioP2
20375;SDS011;10347;51.828;6.466;2023-05-27T00:01:02;8.77;;;3.75;;
20375;SDS011;10347;51.828;6.466;2023-05-27T00:03:28;6.70;;;3.05;;
20375;SDS011;10347;51.828;6.466;2023-05-27T00:05:53;10.68;;;3.15;;
20375;SDS011;10347;51.828;6.466;2023-05-27T00:08:19;8.73;;;3.20;;
20375;SDS011;10347;51.828;6.466;2023-05-27T00:10:44;7.68;;;3.30;;
20375;SDS011;10347;51.828;6.466;2023-05-27T00:13:10;7.32;;;2.85;;
20375;SDS011;10347;51.828;6.466;2023-05-27T00:15:37;8.23;;;2.92;;
20375;SDS011;10347;51.828;6.466;2023-05-27T00:18:05;11.30;;;3.65;;
20375;SDS011;10347;51.828;6.466;2023-05-27T00:20:31;7.68;;;2.90;;
20375;SDS011;10347;51.828;6.466;2023-05-27T00:22:57;11.40;;;3.45;;
20375;SDS011;10347;51.828;6.466;2023-05-27T00:25:25;8.23;;;3.40;;
20375;SDS011;10347;51.828;6.466;2023-05-27T00:27:51;10.18;;;3.20;;
20375;SDS011;10347;51.828;6.466;2023-05-27T00:30:16;8.23;;;3.63;;
20375;SDS011;10347;51.828;6.466;2023-05-27T00:32:42;11.60;;;3.28;;
20375;SDS011;10347;51.828;6.466;2023-05-27T00:35:08;9.48;;;3.28;;
20375;SDS011;10347;51.828;6.466;2023-05-27T00:37:34;7.80;;;3.17;;
20375;SDS011;10347;51.828;6.466;2023-05-27T00:39:59;6.95;;;3.30;;
20375;SDS011;10347;51.828;6.466;2023-05-27T00:42:25;7.68;;;3.38;;
20375;SDS011;10347;51.828;6.466;2023-05-27T00:44:51;4.65;;;2.78;;
20375;SDS011;10347;51.828;6.466;2023-05-27T00:47:17;11.43;;;3.28;;
20375;SDS011;10347;51.828;6.466;2023-05-27T00:49:42;10.63;;;3.70;;
20375;SDS011;10347;51.828;6.466;2023-05-27T00:52:09;11.30;;;3.75;;
20375;SDS011;10347;51.828;6.466;2023-05-27T00:54:34;4.60;;;2.97;;
20375;SDS011;10347;51.828;6.466;2023-05-27T00:57:00;6.93;;;2.85;;
20375;SDS011;10347;51.828;6.466;2023-05-27T00:59:27;8.98;;;3.35;;
20375;SDS011;10347;51.828;6.466;2023-05-27T01:01:53;4.57;;;2.80;;
20375;SDS011;10347;51.828;6.466;2023-05-27T01:04:19;8.43;;;2.78;;
20375;SDS011;10347;51.828;6.466;2023-05-27T01:09:45;6.35;;;3.20;;
20375;SDS011;10347;51.828;6.466;2023-05-27T01:12:31;8.80;;;3.50;;
20375;SDS011;10347;51.828;6.466;2023-05-27T01:15:07;9.10;;;3.30;;
20375;SDS011;10347;51.828;6.466;2023-05-27T01:17:34;7.50;;;3.30;;
20375;SDS011;10347;51.828;6.466;2023-05-27T01:20:07;13.75;;;3.90;;
20375;SDS011;10347;51.828;6.466;2023-05-27T01:22:36;8.38;;;3.20;;
20375;SDS011;10347;51.828;6.466;2023-05-27T01:25:06;10.07;;;3.25;;
20375;SDS011;10347;51.828;6.466;2023-05-27T01:27:32;7.75;;;3.00;;
20375;SDS011;10347;51.828;6.466;2023-05-27T01:29:58;8.05;;;3.22;;
20375;SDS011;10347;51.828;6.466;2023-05-27T01:35:17;12.27;;;3.92;;
20375;SDS011;10347;51.828;6.466;2023-05-27T01:37:51;7.93;;;3.40;;
20375;SDS011;10347;51.828;6.466;2023-05-27T01:40:19;10.75;;;3.20;;
20375;SDS011;10347;51.828;6.466;2023-05-27T01:42:46;10.13;;;3.63;;
20375;SDS011;10347;51.828;6.466;2023-05-27T01:45:13;9.07;;;3.72;;
20375;SDS011;10347;51.828;6.466;2023-05-27T01:47:39;8.65;;;3.30;;
20375;SDS011;10347;51.828;6.466;2023-05-27T01:50:07;9.70;;;3.47;;
20375;SDS011;10347;51.828;6.466;2023-05-27T01:52:33;11.80;;;3.50;;
20375;SDS011;10347;51.828;6.466;2023-05-27T01:54:59;7.18;;;3.20;;
20375;SDS011;10347;51.828;6.466;2023-05-27T01:57:25;11.00;;;3.95;;
20375;SDS011;10347;51.828;6.466;2023-05-27T01:59:50;7.35;;;3.22;;
20375;SDS011;10347;51.828;6.466;2023-05-27T02:02:16;5.75;;;3.10;;
20375;SDS011;10347;51.828;6.466;2023-05-27T02:04:41;8.80;;;3.28;;
20375;SDS011;10347;51.828;6.466;2023-05-27T02:07:07;12.10;;;3.70;;
20375;SDS011;10347;51.828;6.466;2023-05-27T02:09:33;6.13;;;3.08;;
20375;SDS011;10347;51.828;6.466;2023-05-27T02:11:58;14.90;;;3.70;;
20375;SDS011;10347;51.828;6.466;2023-05-27T02:14:24;11.88;;;3.70;;
20375;SDS011;10347;51.828;6.466;2023-05-27T02:16:49;6.70;;;3.13;;
20375;SDS011;10347;51.828;6.466;2023-05-27T02:19:15;13.07;;;3.40;;
20375;SDS011;10347;51.828;6.466;2023-05-27T02:21:42;12.27;;;3.92;;
20375;SDS011;10347;51.828;6.466;2023-05-27T02:24:07;9.07;;;3.65;;
20375;SDS011;10347;51.828;6.466;2023-05-27T02:26:33;9.70;;;3.30;;
20375;SDS011;10347;51.828;6.466;2023-05-27T02:28:59;10.02;;;3.60;;
20375;SDS011;10347;51.828;6.466;2023-05-27T02:31:25;7.93;;;3.20;;
20375;SDS011;10347;51.828;6.466;2023-05-27T02:33:50;9.77;;;3.28;;
20375;SDS011;10347;51.828;6.466;2023-05-27T02:36:16;9.38;;;3.45;;
20375;SDS011;10347;51.828;6.466;2023-05-27T02:38:41;8.82;;;3.67;;
20375;SDS011;10347;51.828;6.466;2023-05-27T02:41:07;6.78;;;3.30;;
20375;SDS011;10347;51.828;6.466;2023-05-27T02:43:33;8.02;;;2.90;;
20375;SDS011;10347;51.828;6.466;2023-05-27T02:45:58;7.32;;;3.10;;
20375;SDS011;10347;51.828;6.466;2023-05-27T02:48:24;9.40;;;3.72;;
20375;SDS011;10347;51.828;6.466;2023-05-27T02:50:49;10.75;;;3.40;;
20375;SDS011;10347;51.828;6.466;2023-05-27T02:53:15;9.77;;;3.97;;
20375;SDS011;10347;51.828;6.466;2023-05-27T02:55:40;5.25;;;3.38;;
20375;SDS011;10347;51.828;6.466;2023-05-27T02:58:06;10.90;;;3.80;;
20375;SDS011;10347;51.828;6.466;2023-05-27T03:00:32;8.98;;;3.58;;
20375;SDS011;10347;51.828;6.466;2023-05-27T03:02:58;9.20;;;3.67;;
20375;SDS011;10347;51.828;6.466;2023-05-27T03:05:24;8.32;;;3.45;;
20375;SDS011;10347;51.828;6.466;2023-05-27T03:07:50;8.15;;;3.35;;
20375;SDS011;10347;51.828;6.466;2023-05-27T03:10:15;6.80;;;3.35;;
20375;SDS011;10347;51.828;6.466;2023-05-27T03:12:41;12.40;;;3.88;;
20375;SDS011;10347;51.828;6.466;2023-05-27T03:15:07;12.57;;;3.97;;
20375;SDS011;10347;51.828;6.466;2023-05-27T03:17:36;6.07;;;3.17;;
20375;SDS011;10347;51.828;6.466;2023-05-27T03:20:02;8.70;;;3.47;;
20375;SDS011;10347;51.828;6.466;2023-05-27T03:22:30;5.20;;;3.35;;
20375;SDS011;10347;51.828;6.466;2023-05-27T03:24:56;6.72;;;3.55;;
20375;SDS011;10347;51.828;6.466;2023-05-27T03:27:22;6.72;;;3.35;;
20375;SDS011;10347;51.828;6.466;2023-05-27T03:29:47;10.98;;;4.07;;
20375;SDS011;10347;51.828;6.466;2023-05-27T03:32:13;11.82;;;3.83;;
20375;SDS011;10347;51.828;6.466;2023-05-27T03:34:39;8.35;;;3.20;;
20375;SDS011;10347;51.828;6.466;2023-05-27T03:37:04;10.85;;;4.03;;
20375;SDS011;10347;51.828;6.466;2023-05-27T03:39:30;8.77;;;3.75;;
20375;SDS011;10347;51.828;6.466;2023-05-27T03:41:55;12.18;;;3.63;;
20375;SDS011;10347;51.828;6.466;2023-05-27T03:44:22;10.02;;;3.90;;
20375;SDS011;10347;51.828;6.466;2023-05-27T03:46:48;8.30;;;3.22;;
20375;SDS011;10347;51.828;6.466;2023-05-27T03:49:13;9.43;;;4.20;;
20375;SDS011;10347;51.828;6.466;2023-05-27T03:51:39;8.50;;;3.63;;
20375;SDS011;10347;51.828;6.466;2023-05-27T03:54:05;12.70;;;4.00;;
20375;SDS011;10347;51.828;6.466;2023-05-27T03:56:30;10.57;;;3.67;;
20375;SDS011;10347;51.828;6.466;2023-05-27T03:58:56;8.05;;;3.88;;
20375;SDS011;10347;51.828;6.466;2023-05-27T04:01:21;12.82;;;4.00;;
20375;SDS011;10347;51.828;6.466;2023-05-27T04:03:48;6.95;;;3.42;;
20375;SDS011;10347;51.828;6.466;2023-05-27T04:06:14;8.02;;;3.30;;
20375;SDS011;10347;51.828;6.466;2023-05-27T04:08:40;7.13;;;3.45;;
20375;SDS011;10347;51.828;6.466;2023-05-27T04:11:09;7.38;;;3.47;;
20375;SDS011;10347;51.828;6.466;2023-05-27T04:13:36;7.78;;;3.42;;
20375;SDS011;10347;51.828;6.466;2023-05-27T04:16:02;11.50;;;3.70;;
20375;SDS011;10347;51.828;6.466;2023-05-27T04:18:28;8.77;;;4.45;;
20375;SDS011;10347;51.828;6.466;2023-05-27T04:20:53;10.23;;;3.83;;
20375;SDS011;10347;51.828;6.466;2023-05-27T04:23:20;10.60;;;4.35;;
20375;SDS011;10347;51.828;6.466;2023-05-27T04:25:45;9.98;;;3.75;;
20375;SDS011;10347;51.828;6.466;2023-05-27T04:28:13;7.60;;;3.80;;
20375;SDS011;10347;51.828;6.466;2023-05-27T04:30:40;9.57;;;3.90;;
20375;SDS011;10347;51.828;6.466;2023-05-27T04:33:06;7.07;;;3.75;;
20375;SDS011;10347;51.828;6.466;2023-05-27T04:36:03;6.35;;;3.20;;
20375;SDS011;10347;51.828;6.466;2023-05-27T04:38:29;9.27;;;3.72;;
20375;SDS011;10347;51.828;6.466;2023-05-27T04:40:56;7.22;;;3.60;;
20375;SDS011;10347;51.828;6.466;2023-05-27T04:43:22;7.13;;;3.38;;
20375;SDS011;10347;51.828;6.466;2023-05-27T04:45:48;9.68;;;3.80;;
20375;SDS011;10347;51.828;6.466;2023-05-27T04:48:14;8.07;;;3.50;;
20375;SDS011;10347;51.828;6.466;2023-05-27T04:50:40;11.65;;;4.18;;
20375;SDS011;10347;51.828;6.466;2023-05-27T04:53:06;11.32;;;4.07;;
20375;SDS011;10347;51.828;6.466;2023-05-27T04:55:32;8.60;;;4.20;;
20375;SDS011;10347;51.828;6.466;2023-05-27T04:57:58;14.52;;;4.55;;
20375;SDS011;10347;51.828;6.466;2023-05-27T05:00:23;16.52;;;5.50;;
20375;SDS011;10347;51.828;6.466;2023-05-27T05:03:03;10.68;;;4.70;;
20375;SDS011;10347;51.828;6.466;2023-05-27T05:05:29;10.55;;;4.78;;
20375;SDS011;10347;51.828;6.466;2023-05-27T05:07:55;11.85;;;4.28;;
20375;SDS011;10347;51.828;6.466;2023-05-27T05:10:21;12.90;;;4.70;;
20375;SDS011;10347;51.828;6.466;2023-05-27T05:12:46;9.43;;;4.40;;
20375;SDS011;10347;51.828;6.466;2023-05-27T05:15:12;7.15;;;3.72;;
20375;SDS011;10347;51.828;6.466;2023-05-27T05:17:37;11.85;;;4.32;;
20375;SDS011;10347;51.828;6.466;2023-05-27T05:20:03;7.28;;;3.58;;
20375;SDS011;10347;51.828;6.466;2023-05-27T05:22:30;14.38;;;3.97;;
20375;SDS011;10347;51.828;6.466;2023-05-27T05:24:56;10.32;;;4.40;;
20375;SDS011;10347;51.828;6.466;2023-05-27T05:27:22;12.93;;;4.53;;
20375;SDS011;10347;51.828;6.466;2023-05-27T05:29:48;14.68;;;4.78;;
20375;SDS011;10347;51.828;6.466;2023-05-27T05:32:14;15.32;;;5.30;;
20375;SDS011;10347;51.828;6.466;2023-05-27T05:34:39;18.55;;;5.50;;
20375;SDS011;10347;51.828;6.466;2023-05-27T05:37:05;10.70;;;4.28;;
20375;SDS011;10347;51.828;6.466;2023-05-27T05:39:31;9.57;;;3.60;;
20375;SDS011;10347;51.828;6.466;2023-05-27T05:41:57;6.85;;;3.80;;
20375;SDS011;10347;51.828;6.466;2023-05-27T05:44:23;10.10;;;3.90;;
20375;SDS011;10347;51.828;6.466;2023-05-27T05:49:18;10.18;;;4.13;;
20375;SDS011;10347;51.828;6.466;2023-05-27T05:51:44;12.00;;;4.30;;
20375;SDS011;10347;51.828;6.466;2023-05-27T05:54:10;14.43;;;4.90;;
20375;SDS011;10347;51.828;6.466;2023-05-27T05:56:35;12.80;;;4.93;;
20375;SDS011;10347;51.828;6.466;2023-05-27T05:59:01;24.52;;;6.43;;
20375;SDS011;10347;51.828;6.466;2023-05-27T06:01:27;18.25;;;5.75;;
20375;SDS011;10347;51.828;6.466;2023-05-27T06:03:53;16.88;;;5.18;;
20375;SDS011;10347;51.828;6.466;2023-05-27T06:06:19;15.32;;;5.10;;
20375;SDS011;10347;51.828;6.466;2023-05-27T06:08:44;18.92;;;5.40;;
20375;SDS011;10347;51.828;6.466;2023-05-27T06:11:10;16.13;;;5.57;;
20375;SDS011;10347;51.828;6.466;2023-05-27T06:13:36;20.55;;;5.72;;
20375;SDS011;10347;51.828;6.466;2023-05-27T06:16:02;13.35;;;5.10;;
20375;SDS011;10347;51.828;6.466;2023-05-27T06:18:27;16.80;;;5.25;;
20375;SDS011;10347;51.828;6.466;2023-05-27T06:20:53;14.38;;;4.75;;
20375;SDS011;10347;51.828;6.466;2023-05-27T06:23:18;14.13;;;4.88;;
20375;SDS011;10347;51.828;6.466;2023-05-27T06:25:44;15.32;;;5.00;;
20375;SDS011;10347;51.828;6.466;2023-05-27T06:28:10;16.60;;;4.70;;
20375;SDS011;10347;51.828;6.466;2023-05-27T06:30:36;16.15;;;4.90;;
20375;SDS011;10347;51.828;6.466;2023-05-27T06:33:02;18.88;;;5.97;;
20375;SDS011;10347;51.828;6.466;2023-05-27T06:35:28;12.75;;;4.43;;
20375;SDS011;10347;51.828;6.466;2023-05-27T06:37:53;15.32;;;4.93;;
20375;SDS011;10347;51.828;6.466;2023-05-27T06:40:19;14.75;;;4.53;;
20375;SDS011;10347;51.828;6.466;2023-05-27T06:42:44;14.80;;;4.47;;
20375;SDS011;10347;51.828;6.466;2023-05-27T06:45:10;16.23;;;5.05;;
20375;SDS011;10347;51.828;6.466;2023-05-27T06:47:36;13.23;;;4.57;;
20375;SDS011;10347;51.828;6.466;2023-05-27T06:50:02;17.02;;;5.28;;
20375;SDS011;10347;51.828;6.466;2023-05-27T06:52:27;19.10;;;4.97;;
20375;SDS011;10347;51.828;6.466;2023-05-27T06:54:53;13.15;;;4.88;;
20375;SDS011;10347;51.828;6.466;2023-05-27T06:57:18;16.25;;;4.90;;
20375;SDS011;10347;51.828;6.466;2023-05-27T06:59:44;13.43;;;4.97;;
20375;SDS011;10347;51.828;6.466;2023-05-27T07:02:10;17.85;;;4.95;;
20375;SDS011;10347;51.828;6.466;2023-05-27T07:04:35;16.95;;;5.18;;
20375;SDS011;10347;51.828;6.466;2023-05-27T07:07:01;10.88;;;4.68;;
20375;SDS011;10347;51.828;6.466;2023-05-27T07:09:28;11.25;;;3.78;;
20375;SDS011;10347;51.828;6.466;2023-05-27T07:11:53;12.65;;;4.50;;
20375;SDS011;10347;51.828;6.466;2023-05-27T07:14:19;15.77;;;5.38;;
20375;SDS011;10347;51.828;6.466;2023-05-27T07:16:45;13.82;;;3.90;;
20375;SDS011;10347;51.828;6.466;2023-05-27T07:19:11;13.73;;;4.70;;
20375;SDS011;10347;51.828;6.466;2023-05-27T07:21:37;20.08;;;5.50;;
20375;SDS011;10347;51.828;6.466;2023-05-27T07:24:02;15.93;;;4.38;;
20375;SDS011;10347;51.828;6.466;2023-05-27T07:26:31;15.30;;;4.45;;
20375;SDS011;10347;51.828;6.466;2023-05-27T07:28:58;15.32;;;4.47;;
20375;SDS011;10347;51.828;6.466;2023-05-27T07:31:25;11.85;;;4.25;;
20375;SDS011;10347;51.828;6.466;2023-05-27T07:33:51;7.05;;;3.80;;
20375;SDS011;10347;51.828;6.466;2023-05-27T07:36:17;14.45;;;4.50;;
20375;SDS011;10347;51.828;6.466;2023-05-27T07:38:42;12.35;;;5.10;;
20375;SDS011;10347;51.828;6.466;2023-05-27T07:41:08;15.38;;;5.20;;
20375;SDS011;10347;51.828;6.466;2023-05-27T07:43:35;9.13;;;4.78;;
20375;SDS011;10347;51.828;6.466;2023-05-27T07:46:00;13.57;;;4.68;;
20375;SDS011;10347;51.828;6.466;2023-05-27T07:48:27;12.80;;;4.88;;
20375;SDS011;10347;51.828;6.466;2023-05-27T07:50:53;12.43;;;4.63;;
20375;SDS011;10347;51.828;6.466;2023-05-27T07:53:19;13.52;;;5.28;;
20375;SDS011;10347;51.828;6.466;2023-05-27T07:55:45;15.88;;;5.35;;
20375;SDS011;10347;51.828;6.466;2023-05-27T07:58:11;18.17;;;5.00;;
20375;SDS011;10347;51.828;6.466;2023-05-27T08:00:36;13.25;;;5.32;;
20375;SDS011;10347;51.828;6.466;2023-05-27T08:03:02;20.05;;;5.32;;
20375;SDS011;10347;51.828;6.466;2023-05-27T08:05:27;20.88;;;5.75;;
20375;SDS011;10347;51.828;6.466;2023-05-27T08:07:53;15.00;;;5.70;;
20375;SDS011;10347;51.828;6.466;2023-05-27T08:10:19;14.63;;;4.97;;
20375;SDS011;10347;51.828;6.466;2023-05-27T08:12:44;17.17;;;5.45;;
20375;SDS011;10347;51.828;6.466;2023-05-27T08:15:10;15.07;;;4.65;;
20375;SDS011;10347;51.828;6.466;2023-05-27T08:17:35;12.45;;;4.53;;
20375;SDS011;10347;51.828;6.466;2023-05-27T08:20:01;13.52;;;4.53;;
20375;SDS011;10347;51.828;6.466;2023-05-27T08:22:28;14.68;;;5.32;;
20375;SDS011;10347;51.828;6.466;2023-05-27T08:24:54;18.70;;;5.95;;
20375;SDS011;10347;51.828;6.466;2023-05-27T08:27:20;11.35;;;5.13;;
20375;SDS011;10347;51.828;6.466;2023-05-27T08:30:06;18.27;;;5.65;;
20375;SDS011;10347;51.828;6.466;2023-05-27T08:32:33;12.85;;;4.82;;
20375;SDS011;10347;51.828;6.466;2023-05-27T08:34:58;20.88;;;6.22;;
20375;SDS011;10347;51.828;6.466;2023-05-27T08:37:24;14.75;;;5.43;;
20375;SDS011;10347;51.828;6.466;2023-05-27T08:39:50;17.00;;;5.57;;
20375;SDS011;10347;51.828;6.466;2023-05-27T08:42:16;15.55;;;5.05;;
20375;SDS011;10347;51.828;6.466;2023-05-27T08:44:41;13.02;;;4.60;;
20375;SDS011;10347;51.828;6.466;2023-05-27T08:47:07;14.75;;;4.72;;
20375;SDS011;10347;51.828;6.466;2023-05-27T08:49:32;11.23;;;4.32;;
20375;SDS011;10347;51.828;6.466;2023-05-27T08:51:58;9.60;;;4.15;;
20375;SDS011;10347;51.828;6.466;2023-05-27T08:54:25;14.98;;;4.95;;
20375;SDS011;10347;51.828;6.466;2023-05-27T08:56:52;12.02;;;4.97;;
20375;SDS011;10347;51.828;6.466;2023-05-27T08:59:22;15.15;;;5.30;;
20375;SDS011;10347;51.828;6.466;2023-05-27T09:01:49;9.82;;;4.00;;
20375;SDS011;10347;51.828;6.466;2023-05-27T09:04:15;12.70;;;4.38;;
20375;SDS011;10347;51.828;6.466;2023-05-27T09:06:41;13.43;;;4.50;;
20375;SDS011;10347;51.828;6.466;2023-05-27T09:09:07;15.90;;;4.88;;
20375;SDS011;10347;51.828;6.466;2023-05-27T09:11:38;22.20;;;6.53;;
20375;SDS011;10347;51.828;6.466;2023-05-27T09:14:04;14.73;;;5.03;;
20375;SDS011;10347;51.828;6.466;2023-05-27T09:16:30;15.43;;;4.72;;
20375;SDS011;10347;51.828;6.466;2023-05-27T09:18:56;18.98;;;5.78;;
20375;SDS011;10347;51.828;6.466;2023-05-27T09:21:23;14.02;;;4.85;;
20375;SDS011;10347;51.828;6.466;2023-05-27T09:23:54;14.30;;;5.05;;
20375;SDS011;10347;51.828;6.466;2023-05-27T09:26:21;12.55;;;4.28;;
20375;SDS011;10347;51.828;6.466;2023-05-27T09:28:48;9.65;;;4.28;;
20375;SDS011;10347;51.828;6.466;2023-05-27T09:31:14;11.00;;;4.32;;
20375;SDS011;10347;51.828;6.466;2023-05-27T09:33:40;14.77;;;4.43;;
20375;SDS011;10347;51.828;6.466;2023-05-27T09:36:06;12.35;;;4.30;;
20375;SDS011;10347;51.828;6.466;2023-05-27T09:38:34;14.43;;;4.53;;
20375;SDS011;10347;51.828;6.466;2023-05-27T09:41:01;9.88;;;3.88;;
20375;SDS011;10347;51.828;6.466;2023-05-27T09:43:27;18.27;;;5.10;;
20375;SDS011;10347;51.828;6.466;2023-05-27T09:45:56;19.02;;;4.90;;
20375;SDS011;10347;51.828;6.466;2023-05-27T09:48:30;9.57;;;3.80;;
20375;SDS011;10347;51.828;6.466;2023-05-27T09:50:56;11.77;;;3.78;;
20375;SDS011;10347;51.828;6.466;2023-05-27T09:53:23;10.23;;;4.40;;
20375;SDS011;10347;51.828;6.466;2023-05-27T09:55:49;10.68;;;4.10;;
20375;SDS011;10347;51.828;6.466;2023-05-27T09:58:17;12.27;;;4.03;;
20375;SDS011;10347;51.828;6.466;2023-05-27T10:00:44;17.35;;;4.72;;
20375;SDS011;10347;51.828;6.466;2023-05-27T10:03:10;14.70;;;4.80;;
20375;SDS011;10347;51.828;6.466;2023-05-27T10:05:37;9.80;;;4.35;;
20375;SDS011;10347;51.828;6.466;2023-05-27T10:08:04;17.48;;;4.70;;
20375;SDS011;10347;51.828;6.466;2023-05-27T10:10:30;9.70;;;3.90;;
20375;SDS011;10347;51.828;6.466;2023-05-27T10:12:57;12.80;;;3.85;;
20375;SDS011;10347;51.828;6.466;2023-05-27T10:15:28;19.20;;;5.13;;
20375;SDS011;10347;51.828;6.466;2023-05-27T10:17:59;20.92;;;5.63;;
20375;SDS011;10347;51.828;6.466;2023-05-27T10:20:34;12.18;;;4.30;;
20375;SDS011;10347;51.828;6.466;2023-05-27T10:23:11;13.40;;;4.40;;
20375;SDS011;10347;51.828;6.466;2023-05-27T10:25:39;11.27;;;4.05;;
20375;SDS011;10347;51.828;6.466;2023-05-27T10:28:05;9.18;;;3.85;;
20375;SDS011;10347;51.828;6.466;2023-05-27T10:30:42;12.30;;;3.65;;
20375;SDS011;10347;51.828;6.466;2023-05-27T10:33:09;11.80;;;4.38;;
20375;SDS011;10347;51.828;6.466;2023-05-27T10:35:38;10.75;;;4.07;;
20375;SDS011;10347;51.828;6.466;2023-05-27T10:38:15;10.85;;;3.55;;
20375;SDS011;10347;51.828;6.466;2023-05-27T10:40:41;12.35;;;4.22;;
20375;SDS011;10347;51.828;6.466;2023-05-27T10:43:18;9.20;;;3.97;;
20375;SDS011;10347;51.828;6.466;2023-05-27T10:45:44;11.25;;;4.43;;
20375;SDS011;10347;51.828;6.466;2023-05-27T10:48:17;12.93;;;4.32;;
20375;SDS011;10347;51.828;6.466;2023-05-27T10:50:49;15.57;;;4.40;;
20375;SDS011;10347;51.828;6.466;2023-05-27T10:53:17;10.18;;;3.90;;
20375;SDS011;10347;51.828;6.466;2023-05-27T10:55:45;13.65;;;4.15;;
20375;SDS011;10347;51.828;6.466;2023-05-27T10:58:13;11.15;;;4.30;;
20375;SDS011;10347;51.828;6.466;2023-05-27T11:00:40;9.82;;;4.07;;
20375;SDS011;10347;51.828;6.466;2023-05-27T11:03:16;13.95;;;4.18;;
20375;SDS011;10347;51.828;6.466;2023-05-27T11:06:05;7.72;;;3.63;;
20375;SDS011;10347;51.828;6.466;2023-05-27T11:08:32;10.48;;;3.60;;
20375;SDS011;10347;51.828;6.466;2023-05-27T11:10:59;13.75;;;4.35;;
20375;SDS011;10347;51.828;6.466;2023-05-27T11:13:31;11.20;;;3.80;;
20375;SDS011;10347;51.828;6.466;2023-05-27T11:15:58;10.23;;;4.00;;
20375;SDS011;10347;51.828;6.466;2023-05-27T11:18:25;14.02;;;3.70;;
20375;SDS011;10347;51.828;6.466;2023-05-27T11:21:05;9.95;;;3.58;;
20375;SDS011;10347;51.828;6.466;2023-05-27T11:23:41;28.42;;;5.00;;
20375;SDS011;10347;51.828;6.466;2023-05-27T11:28:50;13.95;;;4.55;;
20375;SDS011;10347;51.828;6.466;2023-05-27T11:31:22;21.10;;;5.05;;
20375;SDS011;10347;51.828;6.466;2023-05-27T11:33:53;11.88;;;4.22;;
20375;SDS011;10347;51.828;6.466;2023-05-27T11:36:19;11.20;;;4.22;;
20375;SDS011;10347;51.828;6.466;2023-05-27T11:41:12;12.07;;;4.63;;
20375;SDS011;10347;51.828;6.466;2023-05-27T11:43:46;13.48;;;4.20;;
20375;SDS011;10347;51.828;6.466;2023-05-27T11:46:20;10.02;;;3.95;;
20375;SDS011;10347;51.828;6.466;2023-05-27T11:48:46;12.48;;;4.13;;
20375;SDS011;10347;51.828;6.466;2023-05-27T11:51:12;9.55;;;3.95;;
20375;SDS011;10347;51.828;6.466;2023-05-27T11:53:44;7.32;;;2.97;;
20375;SDS011;10347;51.828;6.466;2023-05-27T11:56:10;16.90;;;4.45;;
20375;SDS011;10347;51.828;6.466;2023-05-27T11:58:35;9.88;;;3.72;;
20375;SDS011;10347;51.828;6.466;2023-05-27T12:01:02;8.55;;;3.78;;
20375;SDS011;10347;51.828;6.466;2023-05-27T12:03:29;13.32;;;4.45;;
20375;SDS011;10347;51.828;6.466;2023-05-27T12:05:54;14.15;;;3.95;;
20375;SDS011;10347;51.828;6.466;2023-05-27T12:08:20;16.38;;;5.05;;
20375;SDS011;10347;51.828;6.466;2023-05-27T12:10:45;7.53;;;3.38;;
20375;SDS011;10347;51.828;6.466;2023-05-27T12:13:15;9.38;;;3.80;;
20375;SDS011;10347;51.828;6.466;2023-05-27T12:15:41;9.85;;;3.97;;
20375;SDS011;10347;51.828;6.466;2023-05-27T12:18:07;10.20;;;3.90;;
20375;SDS011;10347;51.828;6.466;2023-05-27T12:20:33;10.77;;;3.80;;
20375;SDS011;10347;51.828;6.466;2023-05-27T12:22:58;9.35;;;3.33;;
20375;SDS011;10347;51.828;6.466;2023-05-27T12:25:24;10.80;;;3.58;;
20375;SDS011;10347;51.828;6.466;2023-05-27T12:27:50;6.47;;;3.35;;
20375;SDS011;10347;51.828;6.466;2023-05-27T12:30:16;7.03;;;3.47;;
20375;SDS011;10347;51.828;6.466;2023-05-27T12:32:41;11.20;;;3.83;;
20375;SDS011;10347;51.828;6.466;2023-05-27T12:35:07;15.02;;;4.30;;
20375;SDS011;10347;51.828;6.466;2023-05-27T12:37:33;9.13;;;3.78;;
20375;SDS011;10347;51.828;6.466;2023-05-27T12:39:58;10.70;;;4.05;;
20375;SDS011;10347;51.828;6.466;2023-05-27T12:42:24;13.40;;;4.30;;
20375;SDS011;10347;51.828;6.466;2023-05-27T12:44:49;10.23;;;3.75;;
20375;SDS011;10347;51.828;6.466;2023-05-27T12:47:15;11.52;;;4.13;;
20375;SDS011;10347;51.828;6.466;2023-05-27T12:49:40;8.45;;;3.70;;
20375;SDS011;10347;51.828;6.466;2023-05-27T12:52:07;9.93;;;3.75;;
20375;SDS011;10347;51.828;6.466;2023-05-27T12:54:33;8.02;;;3.33;;
20375;SDS011;10347;51.828;6.466;2023-05-27T12:56:58;7.03;;;3.22;;
20375;SDS011;10347;51.828;6.466;2023-05-27T12:59:26;12.68;;;4.07;;
20375;SDS011;10347;51.828;6.466;2023-05-27T13:01:51;10.15;;;3.65;;
20375;SDS011;10347;51.828;6.466;2023-05-27T13:04:17;10.40;;;4.00;;
20375;SDS011;10347;51.828;6.466;2023-05-27T13:06:42;10.05;;;3.88;;
20375;SDS011;10347;51.828;6.466;2023-05-27T13:09:08;9.32;;;3.97;;
20375;SDS011;10347;51.828;6.466;2023-05-27T13:11:34;7.95;;;3.58;;
20375;SDS011;10347;51.828;6.466;2023-05-27T13:13:59;10.05;;;3.80;;
20375;SDS011;10347;51.828;6.466;2023-05-27T13:16:25;8.48;;;3.58;;
20375;SDS011;10347;51.828;6.466;2023-05-27T13:18:51;9.73;;;3.92;;
20375;SDS011;10347;51.828;6.466;2023-05-27T13:21:16;12.90;;;4.38;;
20375;SDS011;10347;51.828;6.466;2023-05-27T13:23:42;9.35;;;4.40;;
20375;SDS011;10347;51.828;6.466;2023-05-27T13:26:07;8.82;;;3.72;;
20375;SDS011;10347;51.828;6.466;2023-05-27T13:28:33;9.25;;;3.72;;
20375;SDS011;10347;51.828;6.466;2023-05-27T13:30:59;8.48;;;3.55;;
20375;SDS011;10347;51.828;6.466;2023-05-27T13:33:24;9.57;;;3.65;;
20375;SDS011;10347;51.828;6.466;2023-05-27T13:35:50;9.43;;;3.70;;
20375;SDS011;10347;51.828;6.466;2023-05-27T13:38:15;8.00;;;3.15;;
20375;SDS011;10347;51.828;6.466;2023-05-27T13:40:41;11.45;;;3.78;;
20375;SDS011;10347;51.828;6.466;2023-05-27T13:43:07;8.65;;;3.83;;
20375;SDS011;10347;51.828;6.466;2023-05-27T13:45:33;6.55;;;3.00;;
20375;SDS011;10347;51.828;6.466;2023-05-27T13:47:58;7.05;;;3.00;;
20375;SDS011;10347;51.828;6.466;2023-05-27T13:50:24;7.88;;;3.67;;
20375;SDS011;10347;51.828;6.466;2023-05-27T13:52:50;8.57;;;3.15;;
20375;SDS011;10347;51.828;6.466;2023-05-27T13:55:15;9.88;;;4.15;;
20375;SDS011;10347;51.828;6.466;2023-05-27T13:57:41;13.13;;;5.07;;
20375;SDS011;10347;51.828;6.466;2023-05-27T14:00:08;14.25;;;5.93;;
20375;SDS011;10347;51.828;6.466;2023-05-27T14:02:34;12.90;;;4.70;;
20375;SDS011;10347;51.828;6.466;2023-05-27T14:05:00;12.30;;;3.83;;
20375;SDS011;10347;51.828;6.466;2023-05-27T14:07:27;9.27;;;3.70;;
20375;SDS011;10347;51.828;6.466;2023-05-27T14:09:53;5.93;;;3.08;;
20375;SDS011;10347;51.828;6.466;2023-05-27T14:12:18;9.88;;;3.20;;
20375;SDS011;10347;51.828;6.466;2023-05-27T14:14:44;9.90;;;3.40;;
20375;SDS011;10347;51.828;6.466;2023-05-27T14:17:16;8.23;;;3.58;;
20375;SDS011;10347;51.828;6.466;2023-05-27T14:20:01;9.30;;;3.47;;
20375;SDS011;10347;51.828;6.466;2023-05-27T14:22:37;9.95;;;3.08;;
20375;SDS011;10347;51.828;6.466;2023-05-27T14:25:04;6.05;;;3.45;;
20375;SDS011;10347;51.828;6.466;2023-05-27T14:27:33;9.50;;;3.60;;
20375;SDS011;10347;51.828;6.466;2023-05-27T14:29:58;7.70;;;3.38;;
20375;SDS011;10347;51.828;6.466;2023-05-27T14:32:24;7.00;;;3.00;;
20375;SDS011;10347;51.828;6.466;2023-05-27T14:34:49;9.32;;;3.25;;
20375;SDS011;10347;51.828;6.466;2023-05-27T14:37:15;6.43;;;3.10;;
20375;SDS011;10347;51.828;6.466;2023-05-27T14:39:41;7.68;;;3.35;;
20375;SDS011;10347;51.828;6.466;2023-05-27T14:42:06;10.73;;;3.70;;
20375;SDS011;10347;51.828;6.466;2023-05-27T14:44:35;11.43;;;3.80;;
20375;SDS011;10347;51.828;6.466;2023-05-27T14:47:01;6.90;;;2.90;;
20375;SDS011;10347;51.828;6.466;2023-05-27T14:49:27;8.00;;;3.65;;
20375;SDS011;10347;51.828;6.466;2023-05-27T14:51:52;8.38;;;3.20;;